Time;durP1;ratioP1;P1;durP2;ratioP2;P2;SDS_P1;SDS_P2;PMS_P1;PMS_P2;Temp;Humidity;BMP_temperature;BMP_pressure;BME280_temperature;BME280_humidity;BME280_pressure;Samples;Min_cycle;Max_cycle;Signal;HPM_P1;HPM_P2
2022/04/19 00:00:14;;;;;;;1.85;0.55;;;;;;;8.04;100.00;99921.78;7395809;19;20471;-64
2022/04/19 00:02:40;;;;;;;4.03;1.55;;;;;;;8.03;100.00;99919.47;7392449;19;20023;-64
2022/04/19 00:05:09;;;;;;;0.95;0.95;;;;;;;8.05;100.00;99926.13;7393959;19;20021;-64
2022/04/19 00:07:38;;;;;;;0.65;0.63;;;;;;;8.11;100.00;99920.72;7394405;19;20027;-64
2022/04/19 00:10:05;;;;;;;0.70;0.70;;;;;;;8.11;100.00;99917.94;7398643;19;20082;-65
2022/04/19 00:12:32;;;;;;;3.60;0.60;;;;;;;8.09;100.00;99907.31;7393339;19;20014;-64
2022/04/19 00:14:58;;;;;;;1.70;1.60;;;;;;;8.09;100.00;99904.56;7393815;19;20006;-64
2022/04/19 00:17:24;;;;;;;1.08;0.88;;;;;;;8.11;100.00;99913.19;7392996;19;20022;-65
2022/04/19 00:19:51;;;;;;;1.60;0.85;;;;;;;8.12;100.00;99911.19;7397410;19;20459;-64
2022/04/19 00:22:17;;;;;;;4.80;1.33;;;;;;;8.10;100.00;99910.88;7398718;19;20387;-64
2022/04/19 00:24:43;;;;;;;4.68;1.02;;;;;;;8.09;100.00;99904.56;7401050;19;20471;-64
2022/04/19 00:27:10;;;;;;;10.73;1.63;;;;;;;8.07;100.00;99903.47;7399817;19;20028;-64
2022/04/19 00:29:37;;;;;;;1.88;1.17;;;;;;;8.06;100.00;99897.13;7403911;19;20113;-64
2022/04/19 00:32:04;;;;;;;3.38;1.60;;;;;;;8.05;100.00;99900.38;7399545;19;20014;-64
2022/04/19 00:34:30;;;;;;;2.08;1.33;;;;;;;7.98;100.00;99900.66;7399872;19;20022;-64
2022/04/19 00:36:56;;;;;;;3.85;0.88;;;;;;;7.92;100.00;99897.72;7398360;19;20214;-65
2022/04/19 00:39:22;;;;;;;1.13;1.13;;;;;;;7.90;100.00;99896.63;7401215;19;20463;-65
2022/04/19 00:41:49;;;;;;;1.38;0.85;;;;;;;7.94;100.00;99900.03;7399823;19;20018;-65
2022/04/19 00:44:15;;;;;;;5.03;0.95;;;;;;;7.95;100.00;99909.91;7398202;19;20015;-65
2022/04/19 00:46:41;;;;;;;3.05;1.05;;;;;;;7.92;100.00;99905.25;7397476;19;20369;-65
2022/04/19 00:49:08;;;;;;;1.02;0.68;;;;;;;7.86;100.00;99899.50;7400780;19;20485;-65
2022/04/19 00:51:35;;;;;;;1.58;1.20;;;;;;;7.84;100.00;99906.78;7398741;19;20015;-65
2022/04/19 00:54:03;;;;;;;2.85;1.60;;;;;;;7.80;100.00;99906.09;7395930;19;20074;-65
2022/04/19 00:56:29;;;;;;;4.43;2.03;;;;;;;7.81;100.00;99902.13;7399568;19;20022;-65
2022/04/19 00:58:56;;;;;;;2.15;0.85;;;;;;;7.78;100.00;99897.47;7399731;19;20006;-65
2022/04/19 01:01:23;;;;;;;10.70;1.38;;;;;;;7.80;100.00;99908.88;7401282;19;20270;-65
2022/04/19 01:03:50;;;;;;;36.55;2.65;;;;;;;7.80;100.00;99900.56;7395684;19;20006;-64
2022/04/19 01:06:21;;;;;;;1.98;1.25;;;;;;;7.80;100.00;99895.81;7397154;19;20427;-65
2022/04/19 01:08:48;;;;;;;1.40;1.30;;;;;;;7.82;100.00;99900.91;7399427;19;20021;-64
2022/04/19 01:14:04;;;;;;;1.95;1.02;;;;;;;7.63;100.00;99909.13;7395013;19;20020;-65
2022/04/19 01:16:35;;;;;;;0.80;0.80;;;;;;;7.56;100.00;99901.06;7397723;19;20035;-65
2022/04/19 01:19:05;;;;;;;3.33;1.63;;;;;;;7.57;100.00;99894.31;7398243;19;20011;-65
2022/04/19 01:21:49;;;;;;;2.03;0.77;;;;;;;7.64;100.00;99898.81;7400728;19;20022;-64
2022/04/19 01:24:25;;;;;;;2.75;1.50;;;;;;;7.61;100.00;99894.19;7399497;19;20474;-64
2022/04/19 01:26:56;;;;;;;0.50;0.47;;;;;;;7.62;100.00;99890.94;7399860;19;20019;-65
2022/04/19 01:29:24;;;;;;;;;;;;;;;7.67;100.00;99897.13;7401076;19;20359;-65
2022/04/19 01:31:52;;;;;;;1.27;0.60;;;;;;;7.70;100.00;99902.53;7399752;19;20335;-64
2022/04/19 01:34:20;;;;;;;1.55;1.45;;;;;;;7.76;100.00;99897.16;7394919;19;20018;-65
2022/04/19 01:36:47;;;;;;;1.02;0.65;;;;;;;7.73;100.00;99900.88;7396497;19;20347;-64
2022/04/19 01:39:15;;;;;;;0.77;0.75;;;;;;;7.74;100.00;99896.84;7397629;19;20099;-64
2022/04/19 01:41:45;;;;;;;1.90;1.73;;;;;;;7.63;100.00;99898.03;7395124;19;20463;-64
2022/04/19 01:44:14;;;;;;;7.88;1.65;;;;;;;7.54;100.00;99894.44;7395468;19;20007;-64
2022/04/19 01:46:40;;;;;;;2.25;1.35;;;;;;;7.50;100.00;99897.34;7394533;19;20007;-64
2022/04/19 01:49:07;;;;;;;0.85;0.82;;;;;;;7.45;100.00;99892.38;7396175;19;20014;-64
2022/04/19 01:51:36;;;;;;;0.95;0.95;;;;;;;7.41;100.00;99897.28;7397287;19;20022;-64
2022/04/19 01:54:06;;;;;;;1.05;0.70;;;;;;;7.32;100.00;99905.53;7396435;19;20010;-64
2022/04/19 01:56:33;;;;;;;1.55;1.08;;;;;;;7.28;100.00;99904.91;7396832;19;20035;-63
2022/04/19 01:59:12;;;;;;;2.08;1.23;;;;;;;7.19;100.00;99902.06;7396928;19;20074;-64
2022/04/19 02:02:01;;;;;;;1.27;1.10;;;;;;;7.16;100.00;99896.69;7395064;19;20015;-64
2022/04/19 02:04:27;;;;;;;8.50;1.33;;;;;;;7.14;100.00;99899.91;7393034;19;20361;-64
2022/04/19 02:06:57;;;;;;;1.52;1.48;;;;;;;7.12;100.00;99896.81;7397901;19;20035;-64
2022/04/19 02:09:24;;;;;;;3.70;1.35;;;;;;;7.02;100.00;99892.41;7398783;19;20038;-63
2022/04/19 02:11:51;;;;;;;1.55;1.17;;;;;;;6.99;100.00;99895.31;7395100;19;20062;-64
2022/04/19 02:14:43;;;;;;;0.65;0.65;;;;;;;6.86;100.00;99895.38;7395498;19;20003;-64
2022/04/19 02:17:12;;;;;;;1.90;1.70;;;;;;;6.86;100.00;99898.16;7394731;19;20010;-63
2022/04/19 02:19:38;;;;;;;3.13;1.50;;;;;;;6.98;100.00;99885.47;7398858;19;20003;-64
2022/04/19 02:22:06;;;;;;;3.42;2.85;;;;;;;7.03;100.00;99893.19;7395650;19;20011;-64
2022/04/19 02:24:34;;;;;;;2.08;1.50;;;;;;;7.01;100.00;99896.44;7395475;19;20017;-64
2022/04/19 02:27:01;;;;;;;1.17;1.17;;;;;;;6.94;100.00;99896.66;7395060;19;20062;-64
2022/04/19 02:29:28;;;;;;;1.20;1.15;;;;;;;6.94;100.00;99896.66;7394798;19;20010;-64
2022/04/19 02:31:55;;;;;;;2.20;0.90;;;;;;;6.90;100.00;99896.03;7397804;19;20070;-64
2022/04/19 02:34:21;;;;;;;0.60;0.50;;;;;;;6.79;100.00;99901.16;7394325;19;20024;-64
2022/04/19 02:36:48;;;;;;;1.33;1.25;;;;;;;6.75;100.00;99900.50;7394966;19;20023;-64
2022/04/19 02:39:15;;;;;;;1.60;1.30;;;;;;;6.86;100.00;99906.47;7395170;19;20019;-63
2022/04/19 02:41:42;;;;;;;1.52;1.42;;;;;;;6.80;100.00;99899.94;7394644;19;20508;-64
2022/04/19 02:44:09;;;;;;;1.35;1.23;;;;;;;6.76;100.00;99902.03;7397922;19;20018;-63
2022/04/19 02:46:37;;;;;;;0.93;0.93;;;;;;;6.71;100.00;99908.16;7394960;19;20455;-64
2022/04/19 02:49:04;;;;;;;1.80;1.70;;;;;;;6.62;100.00;99905.31;7396477;19;20078;-63
2022/04/19 02:51:32;;;;;;;1.42;1.42;;;;;;;6.59;100.00;99908.97;7394414;19;20031;-63
2022/04/19 02:53:58;;;;;;;1.55;0.95;;;;;;;6.62;100.00;99908.09;7391815;19;20081;-64
2022/04/19 02:56:27;;;;;;;0.80;0.80;;;;;;;6.58;100.00;99908.19;7398005;19;20040;-63
2022/04/19 02:58:53;;;;;;;1.48;1.40;;;;;;;6.59;100.00;99906.97;7394159;19;20010;-63
2022/04/19 03:01:21;;;;;;;4.03;1.70;;;;;;;6.51;100.00;99902.13;7394608;19;20018;-64
2022/04/19 03:03:48;;;;;;;0.80;0.80;;;;;;;6.43;100.00;99903.59;7394737;19;20346;-63
2022/04/19 03:06:16;;;;;;;2.15;2.05;;;;;;;6.40;100.00;99910.00;7395056;19;20014;-63
2022/04/19 03:08:43;;;;;;;1.65;1.33;;;;;;;6.30;100.00;99902.84;7398254;19;20459;-63
2022/04/19 03:11:12;;;;;;;4.90;3.03;;;;;;;6.31;100.00;99907.16;7393762;19;20363;-63
2022/04/19 03:13:38;;;;;;;8.32;2.88;;;;;;;6.26;100.00;99910.50;7394562;19;20006;-63
2022/04/19 03:16:05;;;;;;;25.52;2.15;;;;;;;6.22;100.00;99912.56;7393533;19;20376;-63
2022/04/19 03:18:32;;;;;;;1.05;1.05;;;;;;;6.29;100.00;99906.81;7395686;19;20020;-64
2022/04/19 03:20:59;;;;;;;1.05;1.00;;;;;;;6.30;100.00;99919.44;7398793;19;20006;-63
2022/04/19 03:28:58;;;;;;;2.65;0.82;;;;;;;6.27;100.00;99921.09;7393727;19;20035;-65
2022/04/19 03:31:26;;;;;;;7.75;2.33;;;;;;;6.23;100.00;99922.44;7394047;19;20025;-64
2022/04/19 03:33:54;;;;;;;1.05;1.05;;;;;;;6.25;100.00;99923.53;7391545;19;20083;-64
2022/04/19 03:36:22;;;;;;;2.90;1.40;;;;;;;6.18;100.00;99922.97;7393079;19;20011;-64
2022/04/19 03:38:49;;;;;;;2.65;1.20;;;;;;;6.13;100.00;99920.78;7393227;19;20078;-64
2022/04/19 03:41:15;;;;;;;0.93;0.82;;;;;;;6.13;100.00;99927.84;7392720;19;20070;-64
2022/04/19 03:43:41;;;;;;;3.40;1.75;;;;;;;6.03;100.00;99928.19;7393323;19;20014;-64
2022/04/19 03:46:10;;;;;;;3.70;1.98;;;;;;;6.07;100.00;99924.09;7392525;19;20011;-64
2022/04/19 03:48:37;;;;;;;1.60;1.35;;;;;;;6.18;100.00;99934.03;7394440;19;20398;-64
2022/04/19 03:51:04;;;;;;;1.02;1.02;;;;;;;6.19;100.00;99938.38;7392838;19;20007;-64
2022/04/19 03:53:33;;;;;;;2.45;1.90;;;;;;;6.19;100.00;99935.59;7391359;19;20010;-64
2022/04/19 03:55:59;;;;;;;2.60;1.38;;;;;;;6.16;100.00;99940.03;7392018;19;20015;-64
2022/04/19 03:58:27;;;;;;;0.85;0.85;;;;;;;6.16;100.00;99947.53;7392772;19;20467;-64
2022/04/19 04:00:54;;;;;;;1.65;1.55;;;;;;;6.10;100.00;99937.06;7391499;19;20007;-63
2022/04/19 04:03:23;;;;;;;0.73;0.73;;;;;;;6.09;100.00;99945.78;7391560;19;20421;-63
2022/04/19 04:05:50;;;;;;;2.50;1.33;;;;;;;6.06;100.00;99939.13;7393299;19;20010;-63
2022/04/19 04:08:16;;;;;;;0.90;0.90;;;;;;;6.04;100.00;99949.09;7391664;19;20484;-63
2022/04/19 04:10:49;;;;;;;2.33;1.65;;;;;;;6.08;100.00;99947.00;7390643;19;20014;-63
2022/04/19 04:13:15;;;;;;;0.70;0.70;;;;;;;6.13;100.00;99954.72;7390007;19;20082;-63
2022/04/19 04:15:41;;;;;;;3.55;2.22;;;;;;;6.15;100.00;99954.31;7392160;19;20074;-63
2022/04/19 04:18:09;;;;;;;1.58;1.33;;;;;;;6.21;100.00;99949.75;7392926;19;20074;-63
2022/04/19 04:20:35;;;;;;;2.22;1.27;;;;;;;6.26;100.00;99952.72;7391520;19;20021;-64
2022/04/19 04:23:01;;;;;;;2.10;2.00;;;;;;;6.33;100.00;99954.50;7391315;19;20467;-63
2022/04/19 04:25:27;;;;;;;2.10;1.25;;;;;;;6.33;100.00;99954.50;7391760;19;20014;-63
2022/04/19 04:27:54;;;;;;;0.77;0.77;;;;;;;6.32;100.00;99955.72;7391980;19;20026;-63
2022/04/19 04:30:22;;;;;;;2.97;2.22;;;;;;;6.29;100.00;99957.38;7392350;19;20022;-63
2022/04/19 04:32:56;;;;;;;1.30;1.25;;;;;;;6.28;100.00;99953.06;7390649;19;20025;-63
2022/04/19 04:35:22;;;;;;;1.45;1.35;;;;;;;6.29;100.00;99953.84;7392767;19;20038;-64
2022/04/19 04:37:48;;;;;;;1.00;1.00;;;;;;;6.32;100.00;99950.19;7391638;19;20039;-63
2022/04/19 04:40:16;;;;;;;5.10;1.98;;;;;;;6.31;100.00;99960.47;7391376;19;20078;-63
2022/04/19 04:43:02;;;;;;;1.40;0.82;;;;;;;6.27;100.00;99953.50;7392923;19;20010;-63
2022/04/19 04:45:29;;;;;;;1.20;1.20;;;;;;;6.20;100.00;99953.72;7391974;19;20025;-64
2022/04/19 04:50:40;;;;;;;2.53;1.00;;;;;;;6.16;100.00;99975.19;7391063;19;20355;-64
2022/04/19 04:53:08;;;;;;;1.75;0.95;;;;;;;6.15;100.00;99970.88;7389288;19;20011;-64
2022/04/19 04:55:38;;;;;;;1.08;1.08;;;;;;;6.09;100.00;99976.97;7392099;19;20019;-64
2022/04/19 04:58:09;;;;;;;4.35;1.50;;;;;;;6.04;100.00;99977.50;7390229;19;20010;-64
2022/04/19 05:00:36;;;;;;;1.95;1.85;;;;;;;6.02;100.00;99977.16;7391099;19;20003;-64
2022/04/19 05:03:03;;;;;;;1.20;1.20;;;;;;;5.90;100.00;99980.72;7390798;19;20465;-64
2022/04/19 05:05:30;;;;;;;1.55;1.35;;;;;;;5.85;100.00;99983.22;7390675;19;20052;-64
2022/04/19 05:07:58;;;;;;;1.42;1.42;;;;;;;5.72;100.00;99980.44;7397335;19;20011;-64
2022/04/19 05:10:26;;;;;;;2.92;1.00;;;;;;;5.60;100.00;99985.94;7398291;19;20011;-64
2022/04/19 05:12:53;;;;;;;2.45;1.52;;;;;;;5.61;100.00;99991.00;7396105;19;20021;-64
2022/04/19 05:15:24;;;;;;;1.60;1.50;;;;;;;5.59;100.00;99992.69;7398378;19;20023;-64
2022/04/19 05:17:51;;;;;;;1.42;1.40;;;;;;;5.52;100.00;99992.88;7398552;19;20115;-64
2022/04/19 05:20:17;;;;;;;1.23;1.20;;;;;;;5.53;100.00;99997.97;7397972;19;20020;-63
2022/04/19 05:22:44;;;;;;;1.08;1.08;;;;;;;5.54;100.00;99996.75;7398478;19;20011;-64
2022/04/19 05:25:10;;;;;;;2.80;1.33;;;;;;;5.54;100.00;99996.75;7397650;19;20007;-64
2022/04/19 05:27:37;;;;;;;1.58;1.45;;;;;;;5.49;100.00;100002.81;7398838;19;20332;-64
2022/04/19 05:30:04;;;;;;;1.88;1.33;;;;;;;5.45;100.00;99999.38;7401484;19;20477;-64
2022/04/19 05:32:31;;;;;;;3.60;1.92;;;;;;;5.46;100.00;99995.38;7396040;19;20040;-64
2022/04/19 05:34:57;;;;;;;1.90;1.80;;;;;;;5.43;100.00;100001.03;7396644;19;20470;-64
2022/04/19 05:37:24;;;;;;;1.48;1.27;;;;;;;5.40;100.00;99997.13;7396981;19;20014;-64
2022/04/19 05:39:51;;;;;;;6.50;2.20;;;;;;;5.35;100.00;100000.44;7401466;19;20010;-64
2022/04/19 05:42:17;;;;;;;2.25;1.10;;;;;;;5.30;100.00;99995.47;7397227;19;20018;-63
2022/04/19 05:44:45;;;;;;;1.83;1.73;;;;;;;5.32;100.00;99990.28;7396827;19;20430;-64
2022/04/19 05:47:15;;;;;;;1.95;1.10;;;;;;;5.33;100.00;99991.81;7396554;19;20014;-64
2022/04/19 05:49:41;;;;;;;1.58;1.58;;;;;;;5.39;100.00;99990.09;7400206;19;20467;-63
2022/04/19 05:52:07;;;;;;;1.58;1.45;;;;;;;5.44;100.00;99997.81;7396514;19;20010;-64
2022/04/19 05:54:34;;;;;;;3.03;2.17;;;;;;;5.47;100.00;99991.44;7396449;19;20018;-64
2022/04/19 05:57:00;;;;;;;14.70;3.90;;;;;;;5.48;100.00;100001.25;7397748;19;20467;-64
2022/04/19 05:59:26;;;;;;;33.92;6.70;;;;;;;5.54;100.00;100001.50;7400438;19;20411;-64
2022/04/19 06:04:52;;;;;;;3.97;3.33;;;;;;;5.64;100.00;100000.41;7396079;19;20479;-63
2022/04/19 06:07:20;;;;;;;7.78;2.95;;;;;;;5.70;100.00;100004.97;7397721;19;20035;-63
2022/04/19 06:09:46;;;;;;;1.85;1.75;;;;;;;5.83;100.00;100019.56;7400469;19;20006;-63
2022/04/19 06:12:13;;;;;;;1.38;1.27;;;;;;;5.92;100.00;100011.44;7397070;19;20018;-63
2022/04/19 06:14:46;;;;;;;0.98;0.98;;;;;;;6.06;100.00;100013.03;7395840;19;20089;-63
2022/04/19 06:17:17;;;;;;;1.25;1.25;;;;;;;6.15;100.00;100012.38;7395106;19;20034;-64
2022/04/19 06:19:44;;;;;;;2.03;1.58;;;;;;;6.22;100.00;100012.13;7398163;19;20038;-63
2022/04/19 06:22:11;;;;;;;2.70;1.80;;;;;;;6.24;100.00;100009.72;7398408;19;20039;-64
2022/04/19 06:24:43;;;;;;;20.52;2.00;;;;;;;6.30;100.00;100019.78;7399179;19;20466;-64
2022/04/19 06:27:09;;;;;;;2.20;1.88;;;;;;;6.35;100.00;100021.19;7398115;19;20014;-64
2022/04/19 06:29:35;;;;;;;4.47;2.50;;;;;;;6.32;100.00;100022.09;7399285;19;20010;-63
2022/04/19 06:32:01;;;;;;;13.00;4.22;;;;;;;6.43;100.00;100019.78;7397301;19;20038;-64
2022/04/19 06:34:43;;;;;;;8.10;3.75;;;;;;;6.61;100.00;100022.72;7395219;19;20051;-64
2022/04/19 06:37:14;;;;;;;9.95;3.50;;;;;;;6.66;100.00;100022.97;7395846;19;20074;-64
2022/04/19 06:39:44;;;;;;;5.40;3.50;;;;;;;6.69;100.00;100024.06;7396217;19;20006;-64
2022/04/19 06:42:11;;;;;;;3.70;3.10;;;;;;;6.69;100.00;100024.06;7394744;19;20011;-64
2022/04/19 06:44:56;;;;;;;5.78;3.10;;;;;;;6.77;100.00;100028.16;7398626;19;20014;-64
2022/04/19 06:47:26;;;;;;;3.70;2.03;;;;;;;6.94;100.00;100029.56;7395655;19;20015;-64
2022/04/19 06:49:57;;;;;;;2.95;2.70;;;;;;;7.05;100.00;100035.50;7396357;19;20023;-64
2022/04/19 06:52:24;;;;;;;3.90;2.58;;;;;;;7.23;100.00;100032.13;7393889;19;20339;-64
2022/04/19 06:54:51;;;;;;;5.82;2.05;;;;;;;7.41;100.00;100027.50;7395320;19;20459;-64
2022/04/19 06:57:17;;;;;;;6.40;2.25;;;;;;;7.46;100.00;100040.78;7394664;19;20010;-64
2022/04/19 06:59:43;;;;;;;3.95;1.60;;;;;;;7.54;100.00;100033.00;7397668;19;20466;-63
2022/04/19 07:02:10;;;;;;;2.40;1.42;;;;;;;7.60;100.00;100028.44;7393231;19;20071;-63
2022/04/19 07:04:36;;;;;;;5.05;2.83;;;;;;;7.63;100.00;100036.63;7393765;19;20172;-63
2022/04/19 07:07:06;;;;;;;1.95;1.67;;;;;;;7.81;100.00;100029.66;7393912;19;20391;-64
2022/04/19 07:09:32;;;;;;;1.60;1.27;;;;;;;7.84;100.00;100034.31;7396858;19;20038;-63
2022/04/19 07:12:00;;;;;;;0.95;0.95;;;;;;;7.91;100.00;100034.78;7393682;19;20010;-63
2022/04/19 07:14:31;;;;;;;1.15;1.10;;;;;;;7.95;100.00;100032.66;7392303;19;20014;-64
2022/04/19 07:16:58;;;;;;;7.07;2.22;;;;;;;8.01;100.00;100032.84;7394034;19;20027;-63
2022/04/19 07:19:25;;;;;;;5.93;2.15;;;;;;;8.21;100.00;100036.03;7395644;19;20403;-63
2022/04/19 07:27:33;;;;;;;9.73;2.05;;;;;;;8.47;100.00;100039.44;7393426;19;20070;-63
2022/04/19 07:30:00;;;;;;;2.55;2.00;;;;;;;8.50;100.00;100030.97;7395802;19;20130;-64
2022/04/19 07:32:26;;;;;;;3.92;1.80;;;;;;;8.54;100.00;100037.13;7395002;19;20049;-63
2022/04/19 07:34:58;;;;;;;;;;;;;;;8.65;100.00;100040.25;7397919;19;20006;-63
2022/04/19 07:37:24;;;;;;;1.65;1.33;;;;;;;8.78;100.00;100042.91;7396153;19;19931;-63
2022/04/19 07:39:51;;;;;;;4.68;1.70;;;;;;;8.94;100.00;100037.84;7394671;19;20085;-64
2022/04/19 07:42:19;;;;;;;8.95;2.33;;;;;;;9.11;100.00;100041.91;7396907;19;20074;-64
2022/04/19 07:44:45;;;;;;;2.53;1.52;;;;;;;9.28;100.00;100036.84;7393083;19;20006;-63
2022/04/19 07:47:14;;;;;;;4.45;1.73;;;;;;;9.53;100.00;100044.13;7394526;19;20375;-64
2022/04/19 07:49:40;;;;;;;4.07;1.88;;;;;;;9.69;100.00;100043.78;7395882;19;20014;-64
2022/04/19 07:52:07;;;;;;;1.85;1.50;;;;;;;9.94;100.00;100038.63;7392568;19;20015;-64
2022/04/19 07:54:33;;;;;;;6.85;1.75;;;;;;;10.03;100.00;100040.63;7391520;19;20018;-64
2022/04/19 07:56:59;;;;;;;2.15;1.60;;;;;;;10.16;100.00;100035.69;7391271;19;20011;-63
2022/04/19 07:59:25;;;;;;;14.68;1.83;;;;;;;10.27;100.00;100035.97;7394550;19;20353;-63
2022/04/19 08:01:52;;;;;;;3.75;0.93;;;;;;;10.49;100.00;100042.06;7392264;19;20015;-63
2022/04/19 08:04:20;;;;;;;7.97;2.00;;;;;;;10.68;100.00;100037.94;7393436;19;20015;-63
2022/04/19 08:06:46;;;;;;;1.63;1.38;;;;;;;10.90;100.00;100036.91;7392315;19;20366;-64
2022/04/19 08:09:12;;;;;;;3.03;1.40;;;;;;;11.05;100.00;100037.75;7394012;19;20475;-63
2022/04/19 08:11:39;;;;;;;3.53;1.17;;;;;;;11.24;100.00;100034.34;7391730;19;20471;-63
2022/04/19 08:14:05;;;;;;;2.05;1.50;;;;;;;11.53;100.00;100044.03;7390024;19;20014;-63
2022/04/19 08:16:32;;;;;;;2.83;1.48;;;;;;;11.76;100.00;100044.03;7391371;19;20074;-63
2022/04/19 08:18:58;;;;;;;2.90;1.33;;;;;;;11.97;100.00;100042.13;7393744;19;20026;-63
2022/04/19 08:21:25;;;;;;;2.92;1.58;;;;;;;12.21;100.00;100050.41;7390299;19;20018;-63
2022/04/19 08:23:52;;;;;;;2.30;0.80;;;;;;;12.32;100.00;100043.00;7390873;19;20003;-63
2022/04/19 08:26:20;;;;;;;2.25;1.48;;;;;;;12.45;100.00;100040.66;7391214;19;20018;-63
2022/04/19 08:28:47;;;;;;;0.77;0.65;;;;;;;12.68;100.00;100047.38;7392749;19;20034;-63
2022/04/19 08:31:13;;;;;;;3.08;0.57;;;;;;;12.83;100.00;100039.72;7389726;19;20463;-63
2022/04/19 08:33:40;;;;;;;2.05;1.30;;;;;;;12.98;100.00;100036.84;7388839;19;20033;-63
2022/04/19 08:36:07;;;;;;;5.95;1.10;;;;;;;13.14;100.00;100033.56;7390586;19;20035;-62
2022/04/19 08:38:33;;;;;;;7.60;2.20;;;;;;;13.17;100.00;100026.97;7392022;19;20455;-62
2022/04/19 08:41:00;;;;;;;2.28;1.27;;;;;;;13.36;100.00;100034.59;7392161;19;20010;-62
2022/04/19 08:43:28;;;;;;;2.33;1.23;;;;;;;13.58;100.00;100032.06;7397850;19;20022;-62
2022/04/19 08:45:55;;;;;;;2.70;1.08;;;;;;;13.72;100.00;100038.06;7400880;19;20019;-63
2022/04/19 08:48:25;;;;;;;2.35;1.33;;;;;;;13.90;100.00;100032.16;7399118;19;20015;-62
2022/04/19 08:50:54;;;;;;;2.90;1.17;;;;;;;14.00;100.00;100013.91;7400213;19;20014;-62
2022/04/19 08:58:52;;;;;;;0.93;0.77;;;;;;;14.33;100.00;100022.63;7400634;19;20091;-63
2022/04/19 09:01:18;;;;;;;1.27;0.60;;;;;;;14.31;100.00;100017.50;7399662;19;20007;-63
2022/04/19 09:03:44;;;;;;;2.33;0.45;;;;;;;14.43;100.00;100015.56;7400034;19;20472;-63
2022/04/19 09:06:10;;;;;;;0.50;0.50;;;;;;;14.49;100.00;100015.63;7398572;19;20013;-62
2022/04/19 09:08:37;;;;;;;1.23;1.02;;;;;;;14.60;100.00;100010.84;7399694;19;20368;-62
2022/04/19 09:11:08;;;;;;;0.57;0.57;;;;;;;14.67;100.00;100020.84;7400902;19;20010;-62
2022/04/19 09:13:35;;;;;;;0.73;0.45;;;;;;;14.67;100.00;100023.66;7398227;19;20430;-62
2022/04/19 09:16:06;;;;;;;7.88;1.00;;;;;;;14.72;100.00;100023.69;7399551;19;20092;-62
2022/04/19 09:18:36;;;;;;;0.75;0.40;;;;;;;14.71;100.00;100019.34;7400020;19;20091;-62
2022/04/19 09:21:04;;;;;;;1.38;0.85;;;;;;;14.68;100.00;100025.97;7398739;19;20043;-62
2022/04/19 09:23:33;;;;;;;2.70;0.75;;;;;;;14.83;100.00;100023.78;7401224;19;20011;-62
2022/04/19 09:26:02;;;;;;;1.48;0.60;;;;;;;15.00;100.00;100023.84;7396962;19;20014;-62
2022/04/19 09:28:29;;;;;;;4.03;0.90;;;;;;;15.13;100.00;100019.34;7399098;19;20031;-63
2022/04/19 09:30:58;;;;;;;4.03;0.85;;;;;;;15.25;100.00;100031.38;7401941;19;20350;-62
2022/04/19 09:33:26;;;;;;;7.75;1.23;;;;;;;15.40;100.00;100022.78;7400540;19;20010;-63
2022/04/19 09:35:57;;;;;;;7.10;1.02;;;;;;;15.45;100.00;100024.84;7400428;19;20091;-62
2022/04/19 09:38:40;;;;;;;12.25;2.47;;;;;;;15.43;100.00;100025.34;7401738;19;20455;-62
2022/04/19 09:41:13;;;;;;;9.30;1.58;;;;;;;15.44;100.00;100026.13;7402280;19;20023;-62
2022/04/19 09:43:40;;;;;;;2.00;0.80;;;;;;;15.33;100.00;100024.03;7397688;19;20014;-62
2022/04/19 09:46:07;;;;;;;1.38;0.57;;;;;;;15.28;100.00;100029.59;7400332;19;20463;-62
2022/04/19 09:48:39;;;;;;;1.85;0.55;;;;;;;15.30;100.00;100027.06;7399379;19;20351;-62
2022/04/19 09:51:08;;;;;;;1.38;0.47;;;;;;;15.30;100.00;100029.84;7397905;19;20882;-62
2022/04/19 09:53:48;;;;;;;0.55;0.55;;;;;;;15.29;100.00;100025.53;7394001;19;20035;-63
2022/04/19 09:56:18;;;;;;;9.30;1.23;;;;;;;15.28;100.00;100026.78;7398183;19;20010;-62
2022/04/19 09:58:50;;;;;;;2.58;0.60;;;;;;;15.28;100.00;100029.59;7397426;19;20017;-62
2022/04/19 10:09:37;;;;;;;0.52;0.52;;;;;;;15.56;100.00;100033.31;7399195;19;20014;-62
2022/04/19 10:12:10;;;;;;;1.48;0.63;;;;;;;15.71;100.00;100033.84;7398087;19;20367;-63
2022/04/19 10:14:36;;;;;;;0.68;0.40;;;;;;;15.84;100.00;100039.75;7397624;19;20466;-62
2022/04/19 10:17:04;;;;;;;1.10;0.55;;;;;;;15.86;100.00;100037.22;7396915;19;20034;-63
2022/04/19 10:19:32;;;;;;;2.65;0.63;;;;;;;15.92;100.00;100050.00;7398520;19;20357;-63
2022/04/19 10:22:06;;;;;;;5.57;0.82;;;;;;;15.73;100.00;100053.78;7395824;19;20320;-62
2022/04/19 10:24:47;;;;;;;0.63;0.63;;;;;;;15.79;100.00;100051.75;7397365;19;20074;-62
2022/04/19 10:27:13;;;;;;;0.30;0.27;;;;;;;15.87;100.00;100050.75;7397871;19;20043;-62
2022/04/19 10:29:43;;;;;;;2.85;0.30;;;;;;;16.11;100.00;100050.31;7399176;19;20240;-62
2022/04/19 10:32:10;;;;;;;1.70;0.70;;;;;;;16.25;100.00;100049.28;7396443;19;20429;-62
2022/04/19 10:34:38;;;;;;;7.88;0.65;;;;;;;16.35;100.00;100044.94;7395881;19;20010;-63
2022/04/19 10:37:19;;;;;;;7.07;0.60;;;;;;;16.44;100.00;100052.34;7397051;19;20330;-62
2022/04/19 10:39:49;;;;;;;3.75;0.68;;;;;;;16.50;100.00;100045.47;7397924;19;20355;-62
2022/04/19 10:42:37;;;;;;;9.80;1.30;;;;;;;16.51;100.00;100043.44;7396133;19;20016;-62
2022/04/19 10:45:13;;;;;;;2.10;0.93;;;;;;;16.49;100.00;100046.72;7395484;19;20339;-62
2022/04/19 10:48:06;;;;;;;1.15;0.45;;;;;;;16.43;100.00;100051.59;7395919;19;20015;-62
2022/04/19 10:50:39;;;;;;;6.30;0.40;;;;;;;16.47;100.00;100054.91;7399153;19;20066;-62
2022/04/19 10:53:10;;;;;;;0.45;0.25;;;;;;;16.54;100.00;100054.44;7394813;19;20010;-62
2022/04/19 10:55:58;;;;;;;14.80;0.65;;;;;;;16.71;100.00;100050.81;7395774;19;20010;-62
2022/04/19 10:58:38;;;;;;;2.10;0.40;;;;;;;16.83;100.00;100046.75;7395855;19;20018;-62
2022/04/19 11:01:07;;;;;;;2.05;0.93;;;;;;;16.84;100.00;100051.06;7394685;19;20024;-62
2022/04/19 11:03:46;;;;;;;5.18;0.40;;;;;;;16.85;100.00;100044.19;7394619;19;20470;-62
2022/04/19 11:06:32;;;;;;;0.93;0.40;;;;;;;16.88;100.00;100048.75;7394311;19;20025;-62
2022/04/19 11:09:20;;;;;;;1.30;0.85;;;;;;;17.26;100.00;100042.28;7396649;19;20023;-63
2022/04/19 11:11:48;;;;;;;1.75;0.98;;;;;;;17.23;100.00;100046.88;7394489;19;20352;-63
2022/04/19 11:14:23;;;;;;;0.65;0.45;;;;;;;17.17;100.00;100043.31;7391906;19;20010;-63
2022/04/19 11:16:52;;;;;;;1.38;0.30;;;;;;;17.33;100.00;100050.94;7394752;19;20022;-63
2022/04/19 11:19:25;;;;;;;0.10;0.10;;;;;;;17.59;100.00;100044.97;7398044;19;20010;-63
2022/04/19 11:21:58;;;;;;;0.28;0.20;;;;;;;17.64;100.00;100046.22;7395227;19;20091;-63
2022/04/19 11:25:12;;;;;;;1.58;0.50;;;;;;;17.71;100.00;100045.69;7395492;19;20364;-63
2022/04/19 11:27:54;;;;;;;0.40;0.40;;;;;;;17.81;100.00;100050.50;7394064;19;20007;-63
2022/04/19 11:30:25;;;;;;;0.70;0.20;;;;;;;17.89;98.33;100051.47;7398359;19;20471;-63
2022/04/19 11:32:56;;;;;;;0.40;0.30;;;;;;;17.96;98.60;100050.13;7392381;19;20010;-63
2022/04/19 11:35:23;;;;;;;1.35;0.52;;;;;;;18.10;97.40;100058.25;7394821;19;20526;-64
2022/04/19 11:37:49;;;;;;;3.00;0.43;;;;;;;18.16;94.86;100047.72;7392340;19;20531;-62
2022/04/19 11:48:47;;;;;;;1.23;0.43;;;;;;;17.89;98.39;100051.47;7395333;19;20087;-63
2022/04/19 11:51:16;;;;;;;0.47;0.40;;;;;;;17.92;95.77;100053.25;7391973;19;20015;-63
2022/04/19 11:53:43;;;;;;;3.67;0.32;;;;;;;17.93;97.26;100051.19;7390558;19;20014;-63
2022/04/19 11:56:10;;;;;;;8.77;0.40;;;;;;;18.11;99.25;100045.69;7394436;19;20010;-62
2022/04/19 11:58:39;;;;;;;0.40;0.40;;;;;;;18.23;94.93;100045.63;7394745;19;20336;-63
2022/04/19 12:01:08;;;;;;;0.28;0.13;;;;;;;18.36;94.88;100048.59;7395093;19;20506;-62
2022/04/19 12:03:36;;;;;;;1.35;0.60;;;;;;;18.39;98.96;100048.28;7393943;19;20062;-62
2022/04/19 12:06:10;;;;;;;1.27;0.52;;;;;;;18.29;94.82;100049.16;7393439;19;20085;-62
2022/04/19 12:08:40;;;;;;;3.05;0.38;;;;;;;18.07;95.79;100044.44;7393334;19;20011;-63
2022/04/19 12:11:13;;;;;;;0.80;0.40;;;;;;;18.05;97.00;100050.59;7393795;19;20014;-63
2022/04/19 12:13:42;;;;;;;0.30;0.20;;;;;;;18.01;95.21;100044.50;7392581;19;20075;-63
2022/04/19 12:16:29;;;;;;;0.63;0.25;;;;;;;17.90;94.48;100053.00;7392782;19;20006;-62